Map

Track Data

SID SEASON NUMBER BASIN SUBBASIN NAME ISO_TIME NATURE LAT LON WMO_WIND WMO_PRES WMO_AGENCY TRACK_TYPE DIST2LAND LANDFALL IFLAG USA_AGENCY USA_ATCF_ID USA_LAT USA_LON USA_RECORD USA_STATUS USA_WIND USA_PRES USA_SSHS USA_R34_NE USA_R34_SE USA_R34_SW USA_R34_NW USA_R50_NE USA_R50_SE USA_R50_SW USA_R50_NW USA_R64_NE USA_R64_SE USA_R64_SW USA_R64_NW USA_POCI USA_ROCI USA_RMW USA_EYE TOKYO_LAT TOKYO_LON TOKYO_GRADE TOKYO_WIND TOKYO_PRES TOKYO_R50_DIR TOKYO_R50_LONG TOKYO_R50_SHORT TOKYO_R30_DIR TOKYO_R30_LONG TOKYO_R30_SHORT TOKYO_LAND CMA_LAT CMA_LON CMA_CAT CMA_WIND CMA_PRES HKO_LAT HKO_LON HKO_CAT HKO_WIND HKO_PRES NEWDELHI_LAT NEWDELHI_LON NEWDELHI_GRADE NEWDELHI_WIND NEWDELHI_PRES NEWDELHI_CI NEWDELHI_DP NEWDELHI_POCI REUNION_LAT REUNION_LON REUNION_TYPE REUNION_WIND REUNION_PRES REUNION_TNUM REUNION_CI REUNION_RMW REUNION_R34_NE REUNION_R34_SE REUNION_R34_SW REUNION_R34_NW REUNION_R50_NE REUNION_R50_SE REUNION_R50_SW REUNION_R50_NW REUNION_R64_NE REUNION_R64_SE REUNION_R64_SW REUNION_R64_NW BOM_LAT BOM_LON BOM_TYPE BOM_WIND BOM_PRES BOM_TNUM BOM_CI BOM_RMW BOM_R34_NE BOM_R34_SE BOM_R34_SW BOM_R34_NW BOM_R50_NE BOM_R50_SE BOM_R50_SW BOM_R50_NW BOM_R64_NE BOM_R64_SE BOM_R64_SW BOM_R64_NW BOM_ROCI BOM_POCI BOM_EYE BOM_POS_METHOD BOM_PRES_METHOD NADI_LAT NADI_LON NADI_CAT NADI_WIND NADI_PRES WELLINGTON_LAT WELLINGTON_LON WELLINGTON_WIND WELLINGTON_PRES DS824_LAT DS824_LON DS824_STAGE DS824_WIND DS824_PRES TD9636_LAT TD9636_LON TD9636_STAGE TD9636_WIND TD9636_PRES TD9635_LAT TD9635_LON TD9635_WIND TD9635_PRES TD9635_ROCI NEUMANN_LAT NEUMANN_LON NEUMANN_CLASS NEUMANN_WIND NEUMANN_PRES MLC_LAT MLC_LON MLC_CLASS MLC_WIND MLC_PRES USA_GUST BOM_GUST BOM_GUST_PER REUNION_GUST REUNION_GUST_PER USA_SEAHGT USA_SEARAD_NE USA_SEARAD_SE USA_SEARAD_SW USA_SEARAD_NW STORM_SPEED STORM_DIR
1908001S12062 1908 1 SI MM NOT_NAMED 1908-01-01 06:00:00 NR -12.0000 62.2000 reunion main 1026 1026 _____O________ -1 -12.0000 62.2000 99 9.90000 0 0
1908001S12062 1908 1 SI MM NOT_NAMED 1908-01-01 09:00:00 NR -11.9969 62.2086 main 1026 1026 _____P________ -1 -11.9969 62.2086 99 0 0
1908001S12062 1908 1 SI MM NOT_NAMED 1908-01-01 12:00:00 NR -12.0013 62.2128 main 1026 1026 _____P________ -1 -12.0013 62.2128 99 0 0
1908001S12062 1908 1 SI MM NOT_NAMED 1908-01-01 15:00:00 NR -12.0205 62.2083 main 1026 1016 _____P________ -1 -12.0205 62.2083 99 1 0
1908001S12062 1908 1 SI MM NOT_NAMED 1908-01-01 18:00:00 NR -12.0621 62.1906 main 1016 1016 _____P________ -1 -12.0621 62.1906 99 1 206
1908001S12062 1908 1 SI MM NOT_NAMED 1908-01-01 21:00:00 NR -12.1334 62.1554 main 1016 1001 _____P________ -1 -12.1334 62.1554 99 2 207
1908001S12062 1908 1 SI MM NOT_NAMED 1908-01-02 00:00:00 NR -12.2418 62.0982 main 1001 976 _____P________ -1 -12.2418 62.0982 99 3 208
1908001S12062 1908 1 SI MM NOT_NAMED 1908-01-02 03:00:00 NR -12.3949 62.0145 main 976 951 _____P________ -1 -12.3949 62.0145 99 4 208
1908001S12062 1908 1 SI MM NOT_NAMED 1908-01-02 06:00:00 NR -12.6000 61.9000 reunion main 951 926 _____O________ -1 -12.6000 61.9000 99 9.90000 5 209
1908001S12062 1908 1 SI MM NOT_NAMED 1908-01-02 09:00:00 NR -12.8614 61.7521 main 916 876 _____P________ -1 -12.8614 61.7521 99 7 209
1908001S12062 1908 1 SI MM NOT_NAMED 1908-01-02 12:00:00 NR -13.1709 61.5766 main 876 836 _____P________ -1 -13.1709 61.5766 99 8 209
1908001S12062 1908 1 SI MM NOT_NAMED 1908-01-02 15:00:00 NR -13.5171 61.3817 main 836 787 _____P________ -1 -13.5171 61.3817 99 8 209
1908001S12062 1908 1 SI MM NOT_NAMED 1908-01-02 18:00:00 NR -13.8885 61.1754 main 787 737 _____P________ -1 -13.8885 61.1754 99 9 208
1908001S12062 1908 1 SI MM NOT_NAMED 1908-01-02 21:00:00 NR -14.2738 60.9657 main 737 697 _____P________ -1 -14.2738 60.9657 99 9 207
1908001S12062 1908 1 SI MM NOT_NAMED 1908-01-03 00:00:00 NR -14.6617 60.7611 main 687 648 _____P________ -1 -14.6617 60.7611 99 9 207
1908001S12062 1908 1 SI MM NOT_NAMED 1908-01-03 03:00:00 NR -15.0409 60.5697 main 648 598 _____P________ -1 -15.0409 60.5697 99 8 205
1908001S12062 1908 1 SI MM NOT_NAMED 1908-01-03 06:00:00 NR -15.4000 60.4000 reunion main 598 563 _____O________ -1 -15.4000 60.4000 99 9.90000 7 203
1908001S12062 1908 1 SI MM NOT_NAMED 1908-01-03 09:00:00 NR -15.6967 60.2768 main 563 529 _____P________ -1 -15.6967 60.2768 99 6 201
1908001S12062 1908 1 SI MM NOT_NAMED 1908-01-03 12:00:00 NR -15.9789 60.1721 main 529 504 _____P________ -1 -15.9789 60.1721 99 6 199
1908001S12062 1908 1 SI MM NOT_NAMED 1908-01-03 15:00:00 NR -16.2491 60.0835 main 504 470 _____P________ -1 -16.2491 60.0835 99 6 197
1908001S12062 1908 1 SI MM NOT_NAMED 1908-01-03 18:00:00 NR -16.5094 60.0087 main 470 445 _____P________ -1 -16.5094 60.0087 99 5 194
1908001S12062 1908 1 SI MM NOT_NAMED 1908-01-03 21:00:00 NR -16.7624 59.9454 main 436 417 _____P________ -1 -16.7624 59.9454 99 5 192
1908001S12062 1908 1 SI MM NOT_NAMED 1908-01-04 00:00:00 NR -17.0103 59.8911 main 417 392 _____P________ -1 -17.0103 59.8911 99 5 191
1908001S12062 1908 1 SI MM NOT_NAMED 1908-01-04 03:00:00 NR -17.2554 59.8434 main 383 365 _____P________ -1 -17.2554 59.8434 99 5 190
1908001S12062 1908 1 SI MM NOT_NAMED 1908-01-04 06:00:00 NR -17.5000 59.8000 reunion main 365 341 _____O________ -1 -17.5000 59.8000 99 9.90000 5 192
1908001S12062 1908 1 SI MM NOT_NAMED 1908-01-04 09:00:00 NR -17.7603 59.7315 main 332 315 _____P________ -1 -17.7603 59.7315 99 5 193
1908001S12062 1908 1 SI MM NOT_NAMED 1908-01-04 12:00:00 NR -18.0193 59.6672 main 315 283 _____P________ -1 -18.0193 59.6672 99 5 193
1908001S12062 1908 1 SI MM NOT_NAMED 1908-01-04 15:00:00 NR -18.2760 59.6095 main 283 267 _____P________ -1 -18.2760 59.6095 99 5 192
1908001S12062 1908 1 SI MM NOT_NAMED 1908-01-04 18:00:00 NR -18.5299 59.5606 main 267 238 _____P________ -1 -18.5299 59.5606 99 5 189
1908001S12062 1908 1 SI MM NOT_NAMED 1908-01-04 21:00:00 NR -18.7799 59.5229 main 238 225 _____P________ -1 -18.7799 59.5229 99 5 187
1908001S12062 1908 1 SI MM NOT_NAMED 1908-01-05 00:00:00 NR -19.0255 59.4987 main 225 208 _____P________ -1 -19.0255 59.4987 99 5 185
1908001S12062 1908 1 SI MM NOT_NAMED 1908-01-05 03:00:00 NR -19.2658 59.4903 main 208 198 _____P________ -1 -19.2658 59.4903 99 5 178
1908001S12062 1908 1 SI MM NOT_NAMED 1908-01-05 06:00:00 NR -19.5000 59.5000 reunion main 198 189 _____O________ -1 -19.5000 59.5000 99 9.90000 5 178
1908001S12062 1908 1 SI MM NOT_NAMED 1908-01-05 09:00:00 NR -19.7321 59.5196 main 189 183 _____P________ -1 -19.7321 59.5196 99 5 174
1908001S12062 1908 1 SI MM NOT_NAMED 1908-01-05 12:00:00 NR -19.9585 59.5567 main 190 188 _____P________ -1 -19.9585 59.5567 99 5 169
1908001S12062 1908 1 SI MM NOT_NAMED 1908-01-05 15:00:00 NR -20.1794 59.6104 main 188 187 _____P________ -1 -20.1794 59.6104 99 5 164
1908001S12062 1908 1 SI MM NOT_NAMED 1908-01-05 18:00:00 NR -20.3947 59.6799 main 198 198 _____P________ -1 -20.3947 59.6799 99 5 162
1908001S12062 1908 1 SI MM NOT_NAMED 1908-01-05 21:00:00 NR -20.6044 59.7645 main 211 211 _____P________ -1 -20.6044 59.7645 99 5 158
1908001S12062 1908 1 SI MM NOT_NAMED 1908-01-06 00:00:00 NR -20.8085 59.8632 main 225 225 _____P________ -1 -20.8085 59.8632 99 5 154
1908001S12062 1908 1 SI MM NOT_NAMED 1908-01-06 03:00:00 NR -21.0070 59.9753 main 241 241 _____P________ -1 -21.0070 59.9753 99 5 151
1908001S12062 1908 1 SI MM NOT_NAMED 1908-01-06 06:00:00 NR -21.2000 60.1000 reunion main 259 259 _____O________ -1 -21.2000 60.1000 99 9.90000 5 148
1908001S12062 1908 1 SI MM NOT_NAMED 1908-01-06 09:00:00 NR -21.4083 60.2410 main 278 278 _____P________ -1 -21.4083 60.2410 99 5 146
1908001S12062 1908 1 SI MM NOT_NAMED 1908-01-06 12:00:00 NR -21.6126 60.3981 main 305 305 _____P________ -1 -21.6126 60.3981 99 5 143
1908001S12062 1908 1 SI MM NOT_NAMED 1908-01-06 15:00:00 NR -21.8102 60.5665 main 333 333 _____P________ -1 -21.8102 60.5665 99 5 140
1908001S12062 1908 1 SI MM NOT_NAMED 1908-01-06 18:00:00 NR -21.9982 60.7411 main 353 353 _____P________ -1 -21.9982 60.7411 99 5 138
1908001S12062 1908 1 SI MM NOT_NAMED 1908-01-06 21:00:00 NR -22.1739 60.9169 main 381 381 _____P________ -1 -22.1739 60.9169 99 5 136
1908001S12062 1908 1 SI MM NOT_NAMED 1908-01-07 00:00:00 NR -22.3345 61.0887 main 405 405 _____P________ -1 -22.3345 61.0887 99 4 134
1908001S12062 1908 1 SI MM NOT_NAMED 1908-01-07 03:00:00 NR -22.4775 61.2515 main 434 434 _____P________ -1 -22.4775 61.2515 99 4 133
1908001S12062 1908 1 SI MM NOT_NAMED 1908-01-07 06:00:00 NR -22.6000 61.4000 reunion main 448 448 _____O________ -1 -22.6000 61.4000 99 9.90000 3 131
1908001S12062 1908 1 SI MM NOT_NAMED 1908-01-07 09:00:00 NR -22.7004 61.5303 main 463 463 _____P________ -1 -22.7004 61.5303 99 3 129
1908001S12062 1908 1 SI MM NOT_NAMED 1908-01-07 12:00:00 NR -22.7806 61.6436 main 477 477 _____P________ -1 -22.7806 61.6436 99 2 126
1908001S12062 1908 1 SI MM NOT_NAMED 1908-01-07 15:00:00 NR -22.8435 61.7422 main 486 486 _____P________ -1 -22.8435 61.7422 99 2 123
1908001S12062 1908 1 SI MM NOT_NAMED 1908-01-07 18:00:00 NR -22.8920 61.8285 main 501 501 _____P________ -1 -22.8920 61.8285 99 2 120
1908001S12062 1908 1 SI MM NOT_NAMED 1908-01-07 21:00:00 NR -22.9291 61.9050 main 510 510 _____P________ -1 -22.9291 61.9050 99 1 116
1908001S12062 1908 1 SI MM NOT_NAMED 1908-01-08 00:00:00 NR -22.9575 61.9741 main 524 524 _____P________ -1 -22.9575 61.9741 99 1 112
1908001S12062 1908 1 SI MM NOT_NAMED 1908-01-08 03:00:00 NR -22.9802 62.0383 main 524 524 _____P________ -1 -22.9802 62.0383 99 1 110
1908001S12062 1908 1 SI MM NOT_NAMED 1908-01-08 06:00:00 NR -23.0000 62.1000 reunion main 533 _____O________ -1 -23.0000 62.1000 99 9.90000 1 111

About IBTrACS Database

This database is a web-friendly format of International Best Track Archive for Climate Stewardship (IBTrACS), a global best track data archive curated by NOAA dating back to 1842.

Updated: 2021-12-06